Warner, Canada
Current Conditions -  °F | °C
As of 12:00 PM on Tuesday 27 Jan 2015 (Local Time) from CYQL Reporting Station
Broken Clouds Broken Clouds  
Wind Chill: 54°   Ceiling: 27000
Heat Index: 54°   Visibility: 40mi
Dew Point: 27°   Wind: 15mph
Humidity: 35%   Direction: 240°WSW
Pressure: 29.79"   Gusts: NA
Location:  49.28°N, 112.2°W
Report Text: CYQL 271900Z 24013KT 40SM FEW180 BKN270 12/M03 A2979 RMK AC2CI5 SLP104 DENSITY ALT 3500FT
Loading
Personal Weather Stations






























Interactive Weather Map New forecast layout! Learn more

10-Day Weather Forecast

Advertisements
Track Severe Weather on mobile